DYE570 LEBL-LIMC
Flight info
| Callsign | DYE570 |
|---|---|
| Flight time | 2h 2m |
| Altitude | 30000 |
| Route | AGENA DCT BODEQ DCT LUMAS DCT UNANA DCT STP DCT RAPED DCT PIGOS DCT EKSID DCT NOSTA DCT EGHIN DCT ANAKI/N0387F180 P860 DEVOX |
| Aircraft | A320/M-SDE3FGHIRWY/LB1 |
Departure
| Time | 2026-05-05 19:42 |
|---|---|
| Airport | Josep Tarradellas Barcelona-El Prat Airport (LEBL) |
Arrival
| Time | 2026-05-05 21:45 |
|---|---|
| Airport | Milan Malpensa International Airport (LIMC) |
| Time | Latitude | Longitude | Altitude | Speed | Heading |
|---|---|---|---|---|---|
| 2026-05-05 18:51 | 41.28972 | 2.07844 | 18 ft | 0 kts | 337° |
| 2026-05-05 19:30 | 41.28971 | 2.07845 | 46 ft | 2 kts | 337° |
| 2026-05-05 19:30 | 41.28948 | 2.07858 | 20 ft | 4 kts | 337° |
| 2026-05-05 19:31 | 41.28923 | 2.07871 | 19 ft | 4 kts | 345° |
| 2026-05-05 19:31 | 41.28897 | 2.07875 | 17 ft | 4 kts | 13° |
| 2026-05-05 19:31 | 41.28878 | 2.07861 | 19 ft | 1 kts | 62° |
| 2026-05-05 19:31 | 41.28876 | 2.07856 | 21 ft | 0 kts | 62° |
| 2026-05-05 19:35 | 41.28901 | 2.07928 | 17 ft | 14 kts | 66° |
| 2026-05-05 19:36 | 41.28938 | 2.08035 | 18 ft | 9 kts | 65° |
| 2026-05-05 19:36 | 41.28944 | 2.08100 | 18 ft | 6 kts | 110° |
| 2026-05-05 19:36 | 41.28921 | 2.08130 | 19 ft | 4 kts | 145° |
| 2026-05-05 19:36 | 41.28905 | 2.08143 | 19 ft | 5 kts | 148° |
| 2026-05-05 19:37 | 41.28846 | 2.08185 | 18 ft | 13 kts | 156° |
| 2026-05-05 19:37 | 41.28761 | 2.08229 | 19 ft | 14 kts | 167° |
| 2026-05-05 19:37 | 41.28694 | 2.08263 | 20 ft | 8 kts | 128° |
| 2026-05-05 19:37 | 41.28706 | 2.08311 | 22 ft | 4 kts | 57° |
| 2026-05-05 19:38 | 41.28732 | 2.08364 | 3 ft | 13 kts | 57° |
| 2026-05-05 19:38 | 41.28779 | 2.08493 | 23 ft | 16 kts | 62° |
| 2026-05-05 19:38 | 41.28828 | 2.08626 | 19 ft | 16 kts | 64° |
| 2026-05-05 19:38 | 41.28872 | 2.08752 | 18 ft | 15 kts | 65° |
| 2026-05-05 19:39 | 41.28917 | 2.08885 | 15 ft | 19 kts | 65° |
| 2026-05-05 19:39 | 41.28974 | 2.09053 | 17 ft | 20 kts | 66° |
| 2026-05-05 19:39 | 41.29032 | 2.09228 | 19 ft | 22 kts | 66° |
| 2026-05-05 19:39 | 41.29095 | 2.09409 | 19 ft | 22 kts | 65° |
| 2026-05-05 19:40 | 41.29161 | 2.09599 | 17 ft | 24 kts | 66° |
| 2026-05-05 19:40 | 41.29233 | 2.09804 | 16 ft | 25 kts | 65° |
| 2026-05-05 19:40 | 41.29278 | 2.09985 | 14 ft | 20 kts | 89° |
| 2026-05-05 19:40 | 41.29240 | 2.10148 | 14 ft | 18 kts | 108° |
| 2026-05-05 19:41 | 41.29184 | 2.10188 | 13 ft | 9 kts | 206° |
| 2026-05-05 19:41 | 41.29160 | 2.10142 | 13 ft | 0 kts | 247° |
| 2026-05-05 19:41 | 41.29155 | 2.10127 | 13 ft | 17 kts | 246° |
| 2026-05-05 19:41 | 41.28991 | 2.09653 | 18 ft | 92 kts | 245° |
| 2026-05-05 19:42 | 41.28641 | 2.08630 | 24 ft | 148 kts | 245° |
| 2026-05-05 19:42 | 41.28191 | 2.07294 | 403 ft | 160 kts | 249° |
| 2026-05-05 19:42 | 41.27551 | 2.06079 | 1024 ft | 165 kts | 215° |
| 2026-05-05 19:42 | 41.26425 | 2.05657 | 1536 ft | 181 kts | 184° |
| 2026-05-05 19:43 | 41.25100 | 2.05644 | 1875 ft | 200 kts | 183° |
| 2026-05-05 19:43 | 41.23636 | 2.05658 | 2254 ft | 219 kts | 183° |
| 2026-05-05 19:43 | 41.22066 | 2.05745 | 2753 ft | 239 kts | 171° |
| 2026-05-05 19:43 | 41.20493 | 2.06747 | 3150 ft | 267 kts | 140° |
| 2026-05-05 19:44 | 41.19392 | 2.08772 | 3873 ft | 277 kts | 116° |
| 2026-05-05 19:44 | 41.18626 | 2.11132 | 4755 ft | 280 kts | 112° |
| 2026-05-05 19:44 | 41.17901 | 2.13554 | 5609 ft | 284 kts | 112° |
| 2026-05-05 19:44 | 41.17181 | 2.15977 | 6450 ft | 288 kts | 112° |
| 2026-05-05 19:45 | 41.16441 | 2.18459 | 7244 ft | 292 kts | 112° |
| 2026-05-05 19:45 | 41.15695 | 2.20983 | 8038 ft | 296 kts | 112° |
| 2026-05-05 19:45 | 41.14950 | 2.23547 | 8826 ft | 300 kts | 112° |
| 2026-05-05 19:45 | 41.14201 | 2.26156 | 9598 ft | 305 kts | 111° |
| 2026-05-05 19:46 | 41.13755 | 2.28933 | 10241 ft | 316 kts | 92° |
| 2026-05-05 19:46 | 41.14142 | 2.31890 | 10449 ft | 339 kts | 67° |
| 2026-05-05 19:46 | 41.15151 | 2.34833 | 10620 ft | 362 kts | 64° |
| 2026-05-05 19:46 | 41.16258 | 2.37932 | 10897 ft | 379 kts | 64° |
| 2026-05-05 19:47 | 41.17404 | 2.41121 | 11488 ft | 386 kts | 64° |
| 2026-05-05 19:47 | 41.18558 | 2.44360 | 12143 ft | 390 kts | 64° |
| 2026-05-05 19:47 | 41.19717 | 2.47646 | 12810 ft | 395 kts | 65° |
| 2026-05-05 19:47 | 41.20882 | 2.50973 | 13465 ft | 399 kts | 65° |
| 2026-05-05 19:48 | 41.22051 | 2.54330 | 14056 ft | 403 kts | 65° |
| 2026-05-05 19:48 | 41.23234 | 2.57730 | 14623 ft | 407 kts | 66° |
| 2026-05-05 19:48 | 41.24426 | 2.61162 | 15196 ft | 411 kts | 66° |
| 2026-05-05 19:48 | 41.25633 | 2.64632 | 15755 ft | 415 kts | 66° |
| 2026-05-05 19:49 | 41.26852 | 2.68140 | 16302 ft | 420 kts | 66° |
| 2026-05-05 19:49 | 41.28082 | 2.71683 | 16850 ft | 424 kts | 66° |
| 2026-05-05 19:49 | 41.29322 | 2.75262 | 17388 ft | 429 kts | 66° |
| 2026-05-05 19:49 | 41.30575 | 2.78886 | 17943 ft | 433 kts | 66° |
| 2026-05-05 19:50 | 41.31839 | 2.82550 | 18433 ft | 438 kts | 66° |
| 2026-05-05 19:50 | 41.33117 | 2.86255 | 18861 ft | 443 kts | 67° |
| 2026-05-05 19:50 | 41.34409 | 2.90002 | 19277 ft | 449 kts | 67° |
| 2026-05-05 19:50 | 41.35717 | 2.93801 | 19686 ft | 454 kts | 67° |
| 2026-05-05 19:51 | 41.37039 | 2.97644 | 20079 ft | 460 kts | 67° |
| 2026-05-05 19:51 | 41.38379 | 3.01539 | 20487 ft | 464 kts | 67° |
| 2026-05-05 19:51 | 41.39728 | 3.05472 | 20884 ft | 469 kts | 68° |
| 2026-05-05 19:51 | 41.41069 | 3.09395 | 21271 ft | 474 kts | 68° |
| 2026-05-05 19:52 | 41.42440 | 3.13411 | 21650 ft | 478 kts | 68° |
| 2026-05-05 19:52 | 41.43824 | 3.17461 | 22017 ft | 483 kts | 68° |
| 2026-05-05 19:52 | 41.45224 | 3.21559 | 22384 ft | 487 kts | 68° |
| 2026-05-05 19:52 | 41.46633 | 3.25690 | 22741 ft | 492 kts | 68° |
| 2026-05-05 19:53 | 41.48051 | 3.29862 | 23088 ft | 496 kts | 68° |
| 2026-05-05 19:53 | 41.49480 | 3.34064 | 23422 ft | 500 kts | 68° |
| 2026-05-05 19:53 | 41.50919 | 3.38313 | 23693 ft | 504 kts | 68° |
| 2026-05-05 19:53 | 41.52363 | 3.42589 | 23991 ft | 507 kts | 68° |
| 2026-05-05 19:54 | 41.53790 | 3.46903 | 24289 ft | 509 kts | 71° |
| 2026-05-05 19:54 | 41.54890 | 3.51381 | 24592 ft | 507 kts | 79° |
| 2026-05-05 19:54 | 41.55659 | 3.55970 | 24894 ft | 508 kts | 82° |
| 2026-05-05 19:54 | 41.56410 | 3.60595 | 25182 ft | 510 kts | 82° |
| 2026-05-05 19:55 | 41.57168 | 3.65235 | 25468 ft | 513 kts | 82° |
| 2026-05-05 19:55 | 41.57932 | 3.69896 | 25754 ft | 515 kts | 82° |
| 2026-05-05 19:55 | 41.58698 | 3.74578 | 26033 ft | 517 kts | 81° |
| 2026-05-05 19:55 | 41.59464 | 3.79275 | 26313 ft | 519 kts | 81° |
| 2026-05-05 19:56 | 41.60234 | 3.83996 | 26581 ft | 521 kts | 81° |
| 2026-05-05 19:56 | 41.61002 | 3.88725 | 26861 ft | 522 kts | 81° |
| 2026-05-05 19:56 | 41.61769 | 3.93482 | 27139 ft | 523 kts | 82° |
| 2026-05-05 19:56 | 41.62523 | 3.98179 | 27395 ft | 525 kts | 82° |
| 2026-05-05 19:57 | 41.63289 | 4.02965 | 27639 ft | 526 kts | 82° |
| 2026-05-05 19:57 | 41.64054 | 4.07755 | 27880 ft | 528 kts | 82° |
| 2026-05-05 19:57 | 41.64823 | 4.12559 | 28113 ft | 529 kts | 81° |
| 2026-05-05 19:57 | 41.65952 | 4.17254 | 28423 ft | 533 kts | 67° |
| 2026-05-05 19:58 | 41.67856 | 4.21510 | 28748 ft | 534 kts | 52° |
| 2026-05-05 19:58 | 41.70190 | 4.25367 | 29074 ft | 533 kts | 50° |
| 2026-05-05 19:58 | 41.72554 | 4.29203 | 29401 ft | 533 kts | 50° |
| 2026-05-05 19:58 | 41.74914 | 4.33018 | 29726 ft | 532 kts | 50° |
| 2026-05-05 19:59 | 41.77279 | 4.36841 | 29889 ft | 533 kts | 50° |
| 2026-05-05 19:59 | 41.81999 | 4.44496 | 29909 ft | 533 kts | 50° |
| 2026-05-05 20:00 | 41.86703 | 4.52172 | 29906 ft | 532 kts | 50° |
| 2026-05-05 20:00 | 41.91396 | 4.59858 | 29906 ft | 532 kts | 50° |
| 2026-05-05 20:01 | 41.96083 | 4.67556 | 29897 ft | 532 kts | 50° |
| 2026-05-05 20:01 | 42.00765 | 4.75263 | 29904 ft | 532 kts | 50° |
| 2026-05-05 20:02 | 42.05438 | 4.82977 | 29898 ft | 532 kts | 50° |
| 2026-05-05 20:02 | 42.10106 | 4.90696 | 29904 ft | 532 kts | 51° |
| 2026-05-05 20:03 | 42.14776 | 4.98428 | 29899 ft | 532 kts | 51° |
| 2026-05-05 20:03 | 42.19433 | 5.06167 | 29878 ft | 532 kts | 51° |
| 2026-05-05 20:04 | 42.24083 | 5.13924 | 29877 ft | 532 kts | 51° |
| 2026-05-05 20:04 | 42.28701 | 5.21659 | 29883 ft | 532 kts | 51° |
| 2026-05-05 20:05 | 42.33349 | 5.29433 | 29891 ft | 532 kts | 51° |
| 2026-05-05 20:05 | 42.38001 | 5.37231 | 29884 ft | 532 kts | 51° |
| 2026-05-05 20:06 | 42.42637 | 5.45047 | 29890 ft | 532 kts | 51° |
| 2026-05-05 20:06 | 42.47264 | 5.52885 | 29894 ft | 532 kts | 51° |
| 2026-05-05 20:07 | 42.51891 | 5.60719 | 29894 ft | 532 kts | 51° |
| 2026-05-05 20:07 | 42.56514 | 5.68557 | 29892 ft | 532 kts | 51° |
| 2026-05-05 20:08 | 42.61133 | 5.76418 | 29895 ft | 533 kts | 51° |
| 2026-05-05 20:08 | 42.65747 | 5.84293 | 29897 ft | 533 kts | 51° |
| 2026-05-05 20:09 | 42.70354 | 5.92182 | 29912 ft | 533 kts | 52° |
| 2026-05-05 20:09 | 42.74957 | 6.00088 | 29921 ft | 533 kts | 52° |
| 2026-05-05 20:10 | 42.79553 | 6.07997 | 29928 ft | 533 kts | 52° |
| 2026-05-05 20:10 | 42.84167 | 6.15906 | 29933 ft | 532 kts | 49° |
| 2026-05-05 20:11 | 42.89541 | 6.22803 | 29937 ft | 531 kts | 38° |
| 2026-05-05 20:11 | 42.95163 | 6.29227 | 29928 ft | 531 kts | 39° |
| 2026-05-05 20:12 | 43.00819 | 6.35728 | 29931 ft | 531 kts | 39° |
| 2026-05-05 20:12 | 43.06471 | 6.42251 | 29935 ft | 532 kts | 39° |
| 2026-05-05 20:13 | 43.12127 | 6.48783 | 29929 ft | 532 kts | 39° |
| 2026-05-05 20:13 | 43.17780 | 6.55339 | 29937 ft | 532 kts | 39° |
| 2026-05-05 20:14 | 43.23081 | 6.62403 | 29931 ft | 532 kts | 52° |
| 2026-05-05 20:14 | 43.27463 | 6.70598 | 29929 ft | 532 kts | 55° |
| 2026-05-05 20:15 | 43.31808 | 6.78822 | 29928 ft | 532 kts | 55° |
| 2026-05-05 20:15 | 43.36149 | 6.87064 | 29934 ft | 532 kts | 55° |
| 2026-05-05 20:16 | 43.40481 | 6.95317 | 29931 ft | 532 kts | 55° |
| 2026-05-05 20:16 | 43.44780 | 7.03530 | 29930 ft | 532 kts | 55° |
| 2026-05-05 20:17 | 43.49099 | 7.11811 | 29931 ft | 533 kts | 55° |
| 2026-05-05 20:17 | 43.53420 | 7.20116 | 29930 ft | 533 kts | 56° |
| 2026-05-05 20:18 | 43.57734 | 7.28440 | 29928 ft | 534 kts | 56° |
| 2026-05-05 20:18 | 43.62052 | 7.36770 | 29928 ft | 534 kts | 56° |
| 2026-05-05 20:19 | 43.66365 | 7.45113 | 29926 ft | 534 kts | 56° |
| 2026-05-05 20:19 | 43.70674 | 7.53474 | 29927 ft | 534 kts | 56° |
| 2026-05-05 20:20 | 43.74970 | 7.61854 | 29925 ft | 533 kts | 56° |
| 2026-05-05 20:20 | 43.79254 | 7.70233 | 29933 ft | 533 kts | 56° |
| 2026-05-05 20:21 | 43.83428 | 7.78699 | 29928 ft | 531 kts | 62° |
| 2026-05-05 20:21 | 43.87013 | 7.87642 | 29941 ft | 530 kts | 63° |
| 2026-05-05 20:22 | 43.90544 | 7.96622 | 29932 ft | 531 kts | 63° |
| 2026-05-05 20:22 | 43.93476 | 8.04097 | 29930 ft | 530 kts | 63° |
| 2026-05-05 20:23 | 43.97011 | 8.13088 | 29951 ft | 531 kts | 63° |
| 2026-05-05 20:23 | 44.00548 | 8.22084 | 29956 ft | 531 kts | 63° |
| 2026-05-05 20:24 | 44.04073 | 8.31089 | 29954 ft | 530 kts | 63° |
| 2026-05-05 20:24 | 44.07569 | 8.40091 | 29090 ft | 528 kts | 63° |
| 2026-05-05 20:24 | 44.09305 | 8.44571 | 28243 ft | 528 kts | 63° |
| 2026-05-05 20:25 | 44.11045 | 8.49059 | 27414 ft | 526 kts | 63° |
| 2026-05-05 20:25 | 44.12777 | 8.53529 | 26591 ft | 524 kts | 64° |
| 2026-05-05 20:25 | 44.14512 | 8.57987 | 25789 ft | 523 kts | 62° |
| 2026-05-05 20:25 | 44.16559 | 8.62156 | 25013 ft | 520 kts | 51° |
| 2026-05-05 20:26 | 44.19062 | 8.65754 | 24251 ft | 514 kts | 41° |
| 2026-05-05 20:26 | 44.21916 | 8.68683 | 23508 ft | 507 kts | 31° |
| 2026-05-05 20:26 | 44.25000 | 8.70876 | 22630 ft | 490 kts | 20° |
| 2026-05-05 20:26 | 44.28174 | 8.72306 | 21786 ft | 470 kts | 10° |
| 2026-05-05 20:27 | 44.31344 | 8.73006 | 20963 ft | 452 kts | 0° |
| 2026-05-05 20:27 | 44.34427 | 8.73174 | 20281 ft | 435 kts | 358° |
| 2026-05-05 20:27 | 44.37371 | 8.73306 | 20043 ft | 411 kts | 358° |
| 2026-05-05 20:27 | 44.40109 | 8.73437 | 19949 ft | 385 kts | 358° |
| 2026-05-05 20:28 | 44.42736 | 8.73558 | 19980 ft | 375 kts | 357° |
| 2026-05-05 20:28 | 44.45328 | 8.73663 | 19972 ft | 371 kts | 357° |
| 2026-05-05 20:28 | 44.47906 | 8.73762 | 19976 ft | 370 kts | 357° |
| 2026-05-05 20:28 | 44.50476 | 8.73865 | 19975 ft | 369 kts | 357° |
| 2026-05-05 20:29 | 44.53025 | 8.73972 | 19633 ft | 364 kts | 357° |
| 2026-05-05 20:29 | 44.55542 | 8.74079 | 18993 ft | 361 kts | 357° |
| 2026-05-05 20:29 | 44.58038 | 8.74186 | 18377 ft | 357 kts | 357° |
| 2026-05-05 20:29 | 44.60512 | 8.74291 | 17731 ft | 353 kts | 357° |
| 2026-05-05 20:30 | 44.62949 | 8.74402 | 17090 ft | 348 kts | 358° |
| 2026-05-05 20:30 | 44.65354 | 8.74516 | 16475 ft | 343 kts | 358° |
| 2026-05-05 20:30 | 44.67731 | 8.74625 | 16064 ft | 340 kts | 358° |
| 2026-05-05 20:30 | 44.70092 | 8.74727 | 15952 ft | 338 kts | 358° |
| 2026-05-05 20:31 | 44.72445 | 8.74833 | 15975 ft | 339 kts | 357° |
| 2026-05-05 20:31 | 44.74756 | 8.74529 | 15972 ft | 330 kts | 338° |
| 2026-05-05 20:31 | 44.76768 | 8.73142 | 15977 ft | 318 kts | 316° |
| 2026-05-05 20:31 | 44.78243 | 8.70913 | 15976 ft | 308 kts | 296° |
| 2026-05-05 20:32 | 44.79057 | 8.68193 | 15978 ft | 299 kts | 277° |
| 2026-05-05 20:32 | 44.79187 | 8.65322 | 15975 ft | 292 kts | 259° |
| 2026-05-05 20:32 | 44.78663 | 8.62596 | 15976 ft | 288 kts | 243° |
| 2026-05-05 20:32 | 44.77562 | 8.60268 | 15976 ft | 287 kts | 226° |
| 2026-05-05 20:33 | 44.75987 | 8.58560 | 15975 ft | 288 kts | 210° |
| 2026-05-05 20:33 | 44.74182 | 8.57326 | 15975 ft | 289 kts | 206° |
| 2026-05-05 20:33 | 44.72355 | 8.56235 | 15976 ft | 289 kts | 204° |
| 2026-05-05 20:33 | 44.70483 | 8.55192 | 15975 ft | 289 kts | 204° |
| 2026-05-05 20:34 | 44.68607 | 8.54172 | 15972 ft | 289 kts | 203° |
| 2026-05-05 20:34 | 44.66728 | 8.53157 | 15974 ft | 289 kts | 203° |
| 2026-05-05 20:34 | 44.64825 | 8.52227 | 15972 ft | 291 kts | 195° |
| 2026-05-05 20:34 | 44.62796 | 8.52019 | 15972 ft | 297 kts | 179° |
| 2026-05-05 20:35 | 44.60773 | 8.52708 | 15971 ft | 305 kts | 162° |
| 2026-05-05 20:35 | 44.58953 | 8.54303 | 15973 ft | 315 kts | 143° |
| 2026-05-05 20:35 | 44.57557 | 8.56711 | 15974 ft | 325 kts | 124° |
| 2026-05-05 20:35 | 44.56797 | 8.59740 | 15973 ft | 336 kts | 102° |
| 2026-05-05 20:36 | 44.56841 | 8.63037 | 15976 ft | 344 kts | 80° |
| 2026-05-05 20:36 | 44.57731 | 8.66162 | 15972 ft | 348 kts | 57° |
| 2026-05-05 20:36 | 44.59371 | 8.68643 | 15972 ft | 348 kts | 34° |
| 2026-05-05 20:36 | 44.61490 | 8.70249 | 15978 ft | 347 kts | 21° |
| 2026-05-05 20:37 | 44.63712 | 8.71577 | 15977 ft | 347 kts | 19° |
| 2026-05-05 20:37 | 44.65955 | 8.72814 | 15973 ft | 346 kts | 18° |
| 2026-05-05 20:37 | 44.68208 | 8.74015 | 15973 ft | 346 kts | 18° |
| 2026-05-05 20:37 | 44.70477 | 8.75124 | 15972 ft | 343 kts | 9° |
| 2026-05-05 20:38 | 44.72818 | 8.75324 | 15977 ft | 335 kts | 348° |
| 2026-05-05 20:38 | 44.75019 | 8.74461 | 15976 ft | 325 kts | 328° |
| 2026-05-05 20:38 | 44.76851 | 8.72707 | 15980 ft | 315 kts | 309° |
| 2026-05-05 20:38 | 44.78155 | 8.70304 | 15978 ft | 306 kts | 292° |
| 2026-05-05 20:39 | 44.78854 | 8.67534 | 15978 ft | 298 kts | 275° |
| 2026-05-05 20:39 | 44.78931 | 8.64660 | 15978 ft | 292 kts | 259° |
| 2026-05-05 20:39 | 44.78421 | 8.61926 | 15977 ft | 288 kts | 244° |
| 2026-05-05 20:39 | 44.77376 | 8.59539 | 15977 ft | 286 kts | 229° |
| 2026-05-05 20:40 | 44.75890 | 8.57685 | 15975 ft | 287 kts | 213° |
| 2026-05-05 20:40 | 44.74143 | 8.56381 | 15977 ft | 289 kts | 206° |
| 2026-05-05 20:40 | 44.72295 | 8.55268 | 15972 ft | 289 kts | 204° |
| 2026-05-05 20:40 | 44.70419 | 8.54246 | 15973 ft | 289 kts | 203° |
| 2026-05-05 20:41 | 44.68535 | 8.53249 | 15974 ft | 289 kts | 203° |
| 2026-05-05 20:41 | 44.66652 | 8.52248 | 15973 ft | 289 kts | 203° |
| 2026-05-05 20:41 | 44.64748 | 8.51346 | 15971 ft | 291 kts | 194° |
| 2026-05-05 20:41 | 44.62717 | 8.51158 | 15973 ft | 297 kts | 179° |
| 2026-05-05 20:42 | 44.60689 | 8.51825 | 15975 ft | 304 kts | 163° |
| 2026-05-05 20:42 | 44.58843 | 8.53357 | 15973 ft | 314 kts | 145° |
| 2026-05-05 20:42 | 44.57389 | 8.55690 | 15974 ft | 324 kts | 126° |
| 2026-05-05 20:42 | 44.56523 | 8.58650 | 15978 ft | 335 kts | 106° |
| 2026-05-05 20:43 | 44.56408 | 8.61933 | 15975 ft | 343 kts | 85° |
| 2026-05-05 20:43 | 44.57111 | 8.65142 | 15973 ft | 348 kts | 63° |
| 2026-05-05 20:43 | 44.58571 | 8.67841 | 15975 ft | 350 kts | 40° |
| 2026-05-05 20:43 | 44.60595 | 8.69686 | 15976 ft | 347 kts | 23° |
| 2026-05-05 20:44 | 44.62800 | 8.71072 | 15979 ft | 347 kts | 20° |
| 2026-05-05 20:44 | 44.65040 | 8.72334 | 15977 ft | 347 kts | 18° |
| 2026-05-05 20:44 | 44.67295 | 8.73540 | 15977 ft | 346 kts | 18° |
| 2026-05-05 20:44 | 44.69548 | 8.74731 | 15977 ft | 346 kts | 17° |
| 2026-05-05 20:45 | 44.74163 | 8.74934 | 15979 ft | 329 kts | 336° |
| 2026-05-05 20:45 | 44.76167 | 8.73509 | 15978 ft | 319 kts | 317° |
| 2026-05-05 20:45 | 44.77700 | 8.71335 | 15978 ft | 309 kts | 299° |
| 2026-05-05 20:46 | 44.78648 | 8.68682 | 15979 ft | 300 kts | 282° |
| 2026-05-05 20:46 | 44.78972 | 8.65822 | 15980 ft | 294 kts | 265° |
| 2026-05-05 20:46 | 44.78693 | 8.63009 | 15976 ft | 289 kts | 250° |
| 2026-05-05 20:46 | 44.77862 | 8.60460 | 15977 ft | 287 kts | 235° |
| 2026-05-05 20:47 | 44.76551 | 8.58360 | 15976 ft | 286 kts | 220° |
| 2026-05-05 20:47 | 44.74872 | 8.56859 | 15978 ft | 288 kts | 208° |
| 2026-05-05 20:47 | 44.73045 | 8.55686 | 15980 ft | 289 kts | 205° |
| 2026-05-05 20:47 | 44.71178 | 8.54640 | 15976 ft | 289 kts | 203° |
| 2026-05-05 20:48 | 44.69317 | 8.53648 | 15977 ft | 289 kts | 203° |
| 2026-05-05 20:48 | 44.67438 | 8.52650 | 15977 ft | 289 kts | 203° |
| 2026-05-05 20:48 | 44.65560 | 8.51648 | 15976 ft | 289 kts | 201° |
| 2026-05-05 20:48 | 44.63578 | 8.51109 | 15974 ft | 294 kts | 186° |
| 2026-05-05 20:49 | 44.61527 | 8.51408 | 15972 ft | 301 kts | 170° |
| 2026-05-05 20:49 | 44.59581 | 8.52573 | 15973 ft | 310 kts | 153° |
| 2026-05-05 20:49 | 44.57935 | 8.54583 | 15975 ft | 320 kts | 134° |
| 2026-05-05 20:49 | 44.56801 | 8.57312 | 15974 ft | 331 kts | 115° |
| 2026-05-05 20:50 | 44.56357 | 8.60511 | 15974 ft | 340 kts | 94° |
| 2026-05-05 20:50 | 44.56715 | 8.63808 | 15976 ft | 347 kts | 72° |
| 2026-05-05 20:50 | 44.57868 | 8.66779 | 15975 ft | 350 kts | 50° |
| 2026-05-05 20:50 | 44.59690 | 8.69012 | 15975 ft | 348 kts | 27° |
| 2026-05-05 20:51 | 44.61863 | 8.70494 | 15977 ft | 347 kts | 21° |
| 2026-05-05 20:51 | 44.64092 | 8.71798 | 15973 ft | 347 kts | 19° |
| 2026-05-05 20:51 | 44.66339 | 8.73021 | 15976 ft | 347 kts | 18° |
| 2026-05-05 20:51 | 44.68597 | 8.74222 | 15977 ft | 346 kts | 18° |
| 2026-05-05 20:52 | 44.70882 | 8.75241 | 15974 ft | 342 kts | 5° |
| 2026-05-05 20:52 | 44.73221 | 8.75245 | 15978 ft | 333 kts | 345° |
| 2026-05-05 20:52 | 44.75374 | 8.74220 | 15983 ft | 323 kts | 325° |
| 2026-05-05 20:52 | 44.77126 | 8.72340 | 15980 ft | 313 kts | 307° |
| 2026-05-05 20:53 | 44.78327 | 8.69858 | 15983 ft | 304 kts | 289° |
| 2026-05-05 20:53 | 44.78913 | 8.67051 | 15982 ft | 296 kts | 272° |
| 2026-05-05 20:53 | 44.78891 | 8.64191 | 15976 ft | 291 kts | 257° |
| 2026-05-05 20:53 | 44.78299 | 8.61537 | 15978 ft | 287 kts | 242° |
| 2026-05-05 20:54 | 44.77188 | 8.59220 | 15977 ft | 286 kts | 226° |
| 2026-05-05 20:54 | 44.75653 | 8.57450 | 15977 ft | 287 kts | 212° |
| 2026-05-05 20:54 | 44.73869 | 8.56177 | 15977 ft | 288 kts | 206° |
| 2026-05-05 20:54 | 44.72017 | 8.55088 | 15976 ft | 289 kts | 204° |
| 2026-05-05 20:55 | 44.70143 | 8.54076 | 15976 ft | 289 kts | 203° |
| 2026-05-05 20:55 | 44.68264 | 8.53081 | 15977 ft | 289 kts | 203° |
| 2026-05-05 20:55 | 44.66385 | 8.52079 | 15979 ft | 288 kts | 204° |
| 2026-05-05 20:55 | 44.64469 | 8.51244 | 15976 ft | 291 kts | 192° |
| 2026-05-05 20:56 | 44.62429 | 8.51169 | 15975 ft | 297 kts | 177° |
| 2026-05-05 20:56 | 44.60412 | 8.51950 | 15978 ft | 306 kts | 160° |
| 2026-05-05 20:56 | 44.58607 | 8.53590 | 15976 ft | 315 kts | 143° |
| 2026-05-05 20:56 | 44.57223 | 8.56021 | 15977 ft | 326 kts | 123° |
| 2026-05-05 20:57 | 44.56455 | 8.59055 | 15977 ft | 336 kts | 103° |
| 2026-05-05 20:57 | 44.56449 | 8.62359 | 15974 ft | 344 kts | 82° |
| 2026-05-05 20:57 | 44.57260 | 8.65529 | 15971 ft | 349 kts | 60° |
| 2026-05-05 20:57 | 44.58815 | 8.68134 | 15975 ft | 350 kts | 38° |
| 2026-05-05 20:58 | 44.60890 | 8.69875 | 15978 ft | 347 kts | 22° |
| 2026-05-05 20:58 | 44.63101 | 8.71242 | 15977 ft | 347 kts | 20° |
| 2026-05-05 20:58 | 44.65342 | 8.72495 | 15976 ft | 347 kts | 18° |
| 2026-05-05 20:58 | 44.67598 | 8.73701 | 15977 ft | 346 kts | 18° |
| 2026-05-05 20:59 | 44.69856 | 8.74881 | 15979 ft | 345 kts | 14° |
| 2026-05-05 20:59 | 44.72190 | 8.75388 | 15980 ft | 337 kts | 353° |
| 2026-05-05 20:59 | 44.74455 | 8.74801 | 15980 ft | 327 kts | 333° |
| 2026-05-05 20:59 | 44.76405 | 8.73263 | 15982 ft | 317 kts | 314° |
| 2026-05-05 21:00 | 44.77861 | 8.71017 | 15982 ft | 307 kts | 297° |
| 2026-05-05 21:00 | 44.78737 | 8.68331 | 15979 ft | 299 kts | 280° |
| 2026-05-05 21:00 | 44.78993 | 8.65469 | 15982 ft | 293 kts | 264° |
| 2026-05-05 21:00 | 44.78642 | 8.62681 | 15976 ft | 288 kts | 248° |
| 2026-05-05 21:01 | 44.77743 | 8.60185 | 15978 ft | 286 kts | 233° |
| 2026-05-05 21:01 | 44.76386 | 8.58154 | 15980 ft | 286 kts | 218° |
| 2026-05-05 21:01 | 44.74685 | 8.56702 | 15982 ft | 288 kts | 208° |
| 2026-05-05 21:01 | 44.72857 | 8.55544 | 15983 ft | 288 kts | 205° |
| 2026-05-05 21:02 | 44.70993 | 8.54508 | 15979 ft | 289 kts | 203° |
| 2026-05-05 21:02 | 44.69113 | 8.53514 | 15981 ft | 288 kts | 203° |
| 2026-05-05 21:02 | 44.67259 | 8.52533 | 15983 ft | 288 kts | 203° |
| 2026-05-05 21:02 | 44.65382 | 8.51546 | 15978 ft | 289 kts | 200° |
| 2026-05-05 21:03 | 44.63391 | 8.51089 | 15980 ft | 294 kts | 184° |
| 2026-05-05 21:03 | 44.61346 | 8.51469 | 15978 ft | 301 kts | 168° |
| 2026-05-05 21:03 | 44.59417 | 8.52706 | 15970 ft | 311 kts | 152° |
| 2026-05-05 21:03 | 44.57809 | 8.54780 | 15976 ft | 321 kts | 133° |
| 2026-05-05 21:04 | 44.56724 | 8.57564 | 15978 ft | 332 kts | 113° |
| 2026-05-05 21:04 | 44.56347 | 8.60789 | 15980 ft | 341 kts | 92° |
| 2026-05-05 21:04 | 44.56780 | 8.64085 | 15973 ft | 348 kts | 70° |
| 2026-05-05 21:04 | 44.58004 | 8.67015 | 15978 ft | 351 kts | 48° |
| 2026-05-05 21:05 | 44.59876 | 8.69172 | 15975 ft | 348 kts | 26° |
| 2026-05-05 21:05 | 44.62060 | 8.70630 | 15973 ft | 348 kts | 21° |
| 2026-05-05 21:05 | 44.64297 | 8.71929 | 15979 ft | 347 kts | 19° |
| 2026-05-05 21:05 | 44.66551 | 8.73146 | 15978 ft | 347 kts | 18° |
| 2026-05-05 21:06 | 44.68814 | 8.74341 | 15978 ft | 347 kts | 18° |
| 2026-05-05 21:06 | 44.71111 | 8.75289 | 15979 ft | 342 kts | 3° |
| 2026-05-05 21:06 | 44.73445 | 8.75196 | 15981 ft | 332 kts | 342° |
| 2026-05-05 21:06 | 44.75567 | 8.74077 | 15983 ft | 322 kts | 323° |
| 2026-05-05 21:07 | 44.77274 | 8.72131 | 15980 ft | 312 kts | 305° |
| 2026-05-05 21:07 | 44.78428 | 8.69614 | 15981 ft | 303 kts | 287° |
| 2026-05-05 21:07 | 44.78967 | 8.66798 | 15981 ft | 295 kts | 271° |
| 2026-05-05 21:07 | 44.78894 | 8.63946 | 15983 ft | 290 kts | 255° |
| 2026-05-05 21:08 | 44.78247 | 8.61283 | 15982 ft | 287 kts | 240° |
| 2026-05-05 21:08 | 44.77521 | 8.59697 | 15981 ft | 286 kts | 230° |
| 2026-05-05 21:08 | 44.76105 | 8.57801 | 15978 ft | 286 kts | 216° |
| 2026-05-05 21:08 | 44.74361 | 8.56439 | 15979 ft | 288 kts | 207° |
| 2026-05-05 21:09 | 44.72522 | 8.55313 | 15982 ft | 288 kts | 204° |
| 2026-05-05 21:09 | 44.70655 | 8.54287 | 15980 ft | 288 kts | 203° |
| 2026-05-05 21:09 | 44.68779 | 8.53292 | 15978 ft | 288 kts | 203° |
| 2026-05-05 21:09 | 44.66903 | 8.52296 | 15981 ft | 288 kts | 203° |
| 2026-05-05 21:10 | 44.65011 | 8.51348 | 15973 ft | 289 kts | 197° |
| 2026-05-05 21:10 | 44.62999 | 8.51045 | 15980 ft | 295 kts | 181° |
| 2026-05-05 21:10 | 44.60964 | 8.51573 | 15977 ft | 303 kts | 166° |
| 2026-05-05 21:10 | 44.59079 | 8.52966 | 15976 ft | 312 kts | 148° |
| 2026-05-05 21:11 | 44.57556 | 8.55186 | 15974 ft | 323 kts | 129° |
| 2026-05-05 21:11 | 44.56587 | 8.58067 | 15975 ft | 333 kts | 110° |
| 2026-05-05 21:11 | 44.56342 | 8.61326 | 15975 ft | 342 kts | 89° |
| 2026-05-05 21:11 | 44.56911 | 8.64583 | 15974 ft | 348 kts | 67° |
| 2026-05-05 21:12 | 44.58251 | 8.67406 | 15976 ft | 350 kts | 45° |
| 2026-05-05 21:12 | 44.60205 | 8.69418 | 15975 ft | 348 kts | 24° |
| 2026-05-05 21:12 | 44.62403 | 8.70829 | 15978 ft | 348 kts | 20° |
| 2026-05-05 21:12 | 44.64647 | 8.72106 | 15979 ft | 347 kts | 18° |
| 2026-05-05 21:13 | 44.66932 | 8.72887 | 15856 ft | 339 kts | 360° |
| 2026-05-05 21:13 | 44.69231 | 8.72630 | 15527 ft | 327 kts | 341° |
| 2026-05-05 21:13 | 44.71425 | 8.71816 | 15182 ft | 325 kts | 340° |
| 2026-05-05 21:13 | 44.73603 | 8.70996 | 14856 ft | 323 kts | 340° |
| 2026-05-05 21:14 | 44.75771 | 8.70179 | 14535 ft | 321 kts | 340° |
| 2026-05-05 21:14 | 44.77920 | 8.69374 | 14226 ft | 319 kts | 340° |
| 2026-05-05 21:14 | 44.80059 | 8.68575 | 13929 ft | 317 kts | 341° |
| 2026-05-05 21:14 | 44.82181 | 8.67779 | 13603 ft | 315 kts | 341° |
| 2026-05-05 21:15 | 44.84290 | 8.66986 | 13260 ft | 313 kts | 341° |
| 2026-05-05 21:15 | 44.86388 | 8.66199 | 12905 ft | 311 kts | 341° |
| 2026-05-05 21:15 | 44.88478 | 8.65417 | 12552 ft | 309 kts | 341° |
| 2026-05-05 21:15 | 44.90553 | 8.64642 | 12202 ft | 308 kts | 342° |
| 2026-05-05 21:16 | 44.92618 | 8.63870 | 11855 ft | 306 kts | 342° |
| 2026-05-05 21:16 | 44.94668 | 8.63100 | 11507 ft | 304 kts | 342° |
| 2026-05-05 21:16 | 44.96691 | 8.62339 | 11325 ft | 296 kts | 342° |
| 2026-05-05 21:16 | 44.98652 | 8.61601 | 11184 ft | 285 kts | 342° |
| 2026-05-05 21:17 | 45.00547 | 8.60886 | 10839 ft | 280 kts | 342° |
| 2026-05-05 21:17 | 45.02423 | 8.60180 | 10557 ft | 278 kts | 343° |
| 2026-05-05 21:17 | 45.04284 | 8.59480 | 10253 ft | 276 kts | 343° |
| 2026-05-05 21:17 | 45.06134 | 8.58783 | 10004 ft | 274 kts | 343° |
| 2026-05-05 21:18 | 45.07981 | 8.58085 | 9975 ft | 275 kts | 343° |
| 2026-05-05 21:18 | 45.09833 | 8.57384 | 9977 ft | 276 kts | 343° |
| 2026-05-05 21:18 | 45.11686 | 8.56680 | 9976 ft | 276 kts | 343° |
| 2026-05-05 21:18 | 45.13541 | 8.55974 | 9976 ft | 276 kts | 343° |
| 2026-05-05 21:19 | 45.15397 | 8.55268 | 9993 ft | 276 kts | 343° |
| 2026-05-05 21:19 | 45.17251 | 8.54564 | 9998 ft | 276 kts | 343° |
| 2026-05-05 21:19 | 45.19107 | 8.53860 | 9998 ft | 276 kts | 343° |
| 2026-05-05 21:19 | 45.20935 | 8.53168 | 9995 ft | 275 kts | 343° |
| 2026-05-05 21:20 | 45.22708 | 8.52191 | 9995 ft | 272 kts | 326° |
| 2026-05-05 21:20 | 45.24102 | 8.50437 | 10002 ft | 267 kts | 302° |
| 2026-05-05 21:20 | 45.24840 | 8.48069 | 10002 ft | 262 kts | 277° |
| 2026-05-05 21:20 | 45.24808 | 8.45525 | 10000 ft | 258 kts | 253° |
| 2026-05-05 21:21 | 45.24055 | 8.43252 | 9997 ft | 255 kts | 230° |
| 2026-05-05 21:21 | 45.22730 | 8.41604 | 9997 ft | 255 kts | 208° |
| 2026-05-05 21:21 | 45.21053 | 8.40826 | 9994 ft | 256 kts | 186° |
| 2026-05-05 21:21 | 45.19272 | 8.40959 | 9934 ft | 256 kts | 173° |
| 2026-05-05 21:22 | 45.17514 | 8.41362 | 9559 ft | 256 kts | 171° |
| 2026-05-05 21:22 | 45.15767 | 8.41829 | 9189 ft | 255 kts | 170° |
| 2026-05-05 21:22 | 45.14028 | 8.42309 | 8903 ft | 255 kts | 170° |
| 2026-05-05 21:22 | 45.12230 | 8.42805 | 8603 ft | 269 kts | 168° |
| 2026-05-05 21:23 | 45.10511 | 8.43862 | 8133 ft | 274 kts | 144° |
| 2026-05-05 21:23 | 45.09259 | 8.45884 | 7691 ft | 277 kts | 119° |
| 2026-05-05 21:23 | 45.08724 | 8.48489 | 7288 ft | 279 kts | 94° |
| 2026-05-05 21:23 | 45.09027 | 8.51180 | 6890 ft | 280 kts | 68° |
| 2026-05-05 21:24 | 45.10108 | 8.53453 | 6493 ft | 280 kts | 44° |
| 2026-05-05 21:24 | 45.11735 | 8.54932 | 6084 ft | 279 kts | 19° |
| 2026-05-05 21:24 | 45.13633 | 8.55337 | 5975 ft | 278 kts | 355° |
| 2026-05-05 21:24 | 45.15543 | 8.54873 | 5998 ft | 280 kts | 347° |
| 2026-05-05 21:25 | 45.17451 | 8.54321 | 6003 ft | 280 kts | 347° |
| 2026-05-05 21:25 | 45.19362 | 8.53762 | 6005 ft | 280 kts | 347° |
| 2026-05-05 21:25 | 45.21269 | 8.53203 | 6003 ft | 280 kts | 347° |
| 2026-05-05 21:25 | 45.23177 | 8.52646 | 6010 ft | 280 kts | 347° |
| 2026-05-05 21:26 | 45.25084 | 8.52091 | 6009 ft | 280 kts | 348° |
| 2026-05-05 21:26 | 45.26993 | 8.51535 | 6008 ft | 280 kts | 347° |
| 2026-05-05 21:26 | 45.28840 | 8.51003 | 6008 ft | 280 kts | 350° |
| 2026-05-05 21:26 | 45.30775 | 8.51086 | 6005 ft | 279 kts | 16° |
| 2026-05-05 21:27 | 45.32407 | 8.52343 | 6005 ft | 259 kts | 45° |
| 2026-05-05 21:27 | 45.33387 | 8.54376 | 6008 ft | 246 kts | 71° |
| 2026-05-05 21:27 | 45.33776 | 8.56689 | 6010 ft | 244 kts | 81° |
| 2026-05-05 21:27 | 45.34097 | 8.59035 | 6004 ft | 231 kts | 81° |
| 2026-05-05 21:28 | 45.34394 | 8.61192 | 6011 ft | 223 kts | 81° |
| 2026-05-05 21:28 | 45.34470 | 8.63366 | 6006 ft | 219 kts | 104° |
| 2026-05-05 21:28 | 45.33856 | 8.65302 | 6009 ft | 215 kts | 131° |
| 2026-05-05 21:28 | 45.32699 | 8.66595 | 6011 ft | 212 kts | 158° |
| 2026-05-05 21:29 | 45.31277 | 8.67113 | 6017 ft | 211 kts | 171° |
| 2026-05-05 21:29 | 45.29830 | 8.67501 | 6011 ft | 212 kts | 170° |
| 2026-05-05 21:29 | 45.28366 | 8.67900 | 6011 ft | 212 kts | 170° |
| 2026-05-05 21:29 | 45.26934 | 8.68294 | 6008 ft | 212 kts | 170° |
| 2026-05-05 21:30 | 45.25488 | 8.68692 | 6006 ft | 212 kts | 170° |
| 2026-05-05 21:30 | 45.24040 | 8.69086 | 6009 ft | 212 kts | 170° |
| 2026-05-05 21:30 | 45.22591 | 8.69482 | 6009 ft | 212 kts | 170° |
| 2026-05-05 21:30 | 45.21144 | 8.69877 | 6006 ft | 212 kts | 170° |
| 2026-05-05 21:31 | 45.19697 | 8.70273 | 6005 ft | 212 kts | 170° |
| 2026-05-05 21:31 | 45.18251 | 8.70667 | 5982 ft | 211 kts | 170° |
| 2026-05-05 21:31 | 45.16805 | 8.71064 | 5986 ft | 211 kts | 170° |
| 2026-05-05 21:31 | 45.15362 | 8.71464 | 5985 ft | 212 kts | 170° |
| 2026-05-05 21:32 | 45.13916 | 8.71864 | 5984 ft | 211 kts | 170° |
| 2026-05-05 21:32 | 45.12472 | 8.72258 | 5983 ft | 211 kts | 170° |
| 2026-05-05 21:32 | 45.11029 | 8.72651 | 5980 ft | 211 kts | 170° |
| 2026-05-05 21:32 | 45.09585 | 8.73046 | 5982 ft | 211 kts | 170° |
| 2026-05-05 21:33 | 45.08143 | 8.73442 | 5980 ft | 211 kts | 170° |
| 2026-05-05 21:33 | 45.06703 | 8.73854 | 5980 ft | 212 kts | 166° |
| 2026-05-05 21:33 | 45.05458 | 8.74931 | 5981 ft | 215 kts | 131° |
| 2026-05-05 21:33 | 45.04847 | 8.76807 | 5737 ft | 218 kts | 98° |
| 2026-05-05 21:34 | 45.05096 | 8.78914 | 5423 ft | 222 kts | 63° |
| 2026-05-05 21:34 | 45.06156 | 8.80482 | 5100 ft | 224 kts | 28° |
| 2026-05-05 21:34 | 45.07615 | 8.81253 | 4792 ft | 225 kts | 15° |
| 2026-05-05 21:34 | 45.09129 | 8.81821 | 4490 ft | 225 kts | 14° |
| 2026-05-05 21:35 | 45.10642 | 8.82356 | 4218 ft | 223 kts | 14° |
| 2026-05-05 21:35 | 45.12142 | 8.82876 | 4020 ft | 221 kts | 14° |
| 2026-05-05 21:35 | 45.13635 | 8.83393 | 3975 ft | 220 kts | 14° |
| 2026-05-05 21:35 | 45.15127 | 8.83912 | 3980 ft | 221 kts | 14° |
| 2026-05-05 21:36 | 45.16618 | 8.84429 | 3982 ft | 221 kts | 14° |
| 2026-05-05 21:36 | 45.18113 | 8.84946 | 3983 ft | 221 kts | 14° |
| 2026-05-05 21:36 | 45.19606 | 8.85463 | 3982 ft | 221 kts | 13° |
| 2026-05-05 21:36 | 45.21124 | 8.85688 | 3983 ft | 220 kts | 358° |
| 2026-05-05 21:37 | 45.22630 | 8.85333 | 3986 ft | 220 kts | 344° |
| 2026-05-05 21:37 | 45.24093 | 8.84707 | 3984 ft | 219 kts | 340° |
| 2026-05-05 21:37 | 45.25530 | 8.83983 | 4005 ft | 219 kts | 339° |
| 2026-05-05 21:37 | 45.26975 | 8.83287 | 4005 ft | 219 kts | 345° |
| 2026-05-05 21:38 | 45.28470 | 8.82823 | 4007 ft | 220 kts | 348° |
| 2026-05-05 21:38 | 45.29973 | 8.82416 | 4007 ft | 219 kts | 349° |
| 2026-05-05 21:38 | 45.31475 | 8.82010 | 4006 ft | 220 kts | 348° |
| 2026-05-05 21:38 | 45.32974 | 8.81601 | 4008 ft | 220 kts | 349° |
| 2026-05-05 21:39 | 45.34472 | 8.81192 | 4008 ft | 219 kts | 348° |
| 2026-05-05 21:39 | 45.35970 | 8.80783 | 4010 ft | 219 kts | 349° |
| 2026-05-05 21:39 | 45.37465 | 8.80374 | 4008 ft | 219 kts | 349° |
| 2026-05-05 21:39 | 45.38958 | 8.79965 | 4008 ft | 219 kts | 349° |
| 2026-05-05 21:40 | 45.40453 | 8.79556 | 4007 ft | 218 kts | 349° |
| 2026-05-05 21:40 | 45.41939 | 8.79149 | 4004 ft | 215 kts | 349° |
| 2026-05-05 21:40 | 45.43353 | 8.78762 | 4009 ft | 198 kts | 349° |
| 2026-05-05 21:40 | 45.44661 | 8.78403 | 4019 ft | 189 kts | 349° |
| 2026-05-05 21:41 | 45.45929 | 8.78055 | 3843 ft | 187 kts | 349° |
| 2026-05-05 21:41 | 45.47203 | 8.77706 | 3612 ft | 186 kts | 349° |
| 2026-05-05 21:41 | 45.48467 | 8.77358 | 3380 ft | 185 kts | 349° |
| 2026-05-05 21:41 | 45.49728 | 8.77012 | 3135 ft | 184 kts | 349° |
| 2026-05-05 21:42 | 45.50979 | 8.76668 | 2894 ft | 183 kts | 350° |
| 2026-05-05 21:42 | 45.52229 | 8.76325 | 2646 ft | 182 kts | 350° |
| 2026-05-05 21:42 | 45.53474 | 8.75982 | 2406 ft | 182 kts | 350° |
| 2026-05-05 21:42 | 45.54693 | 8.75646 | 2147 ft | 172 kts | 350° |
| 2026-05-05 21:43 | 45.55824 | 8.75334 | 1925 ft | 159 kts | 351° |
| 2026-05-05 21:43 | 45.56870 | 8.75046 | 1734 ft | 150 kts | 351° |
| 2026-05-05 21:43 | 45.57877 | 8.74769 | 1508 ft | 145 kts | 350° |
| 2026-05-05 21:43 | 45.58850 | 8.74500 | 1299 ft | 141 kts | 349° |
| 2026-05-05 21:44 | 45.59800 | 8.74244 | 1084 ft | 138 kts | 349° |
| 2026-05-05 21:44 | 45.60736 | 8.73982 | 928 ft | 136 kts | 349° |
| 2026-05-05 21:44 | 45.61667 | 8.73723 | 784 ft | 136 kts | 348° |
| 2026-05-05 21:44 | 45.62534 | 8.73476 | 739 ft | 108 kts | 349° |
| 2026-05-05 21:45 | 45.62944 | 8.73365 | 736 ft | 34 kts | 348° |
| 2026-05-05 21:45 | 45.63128 | 8.73260 | 736 ft | 25 kts | 323° |
| 2026-05-05 21:45 | 45.63251 | 8.73087 | 736 ft | 24 kts | 307° |
| 2026-05-05 21:45 | 45.63325 | 8.72934 | 735 ft | 16 kts | 304° |
| 2026-05-05 21:46 | 45.63335 | 8.72914 | 736 ft | 0 kts | 304° |
| 2026-05-05 21:46 | 45.63353 | 8.72876 | 736 ft | 12 kts | 304° |
| 2026-05-05 21:47 | 45.63388 | 8.72799 | 736 ft | 8 kts | 302° |
| 2026-05-05 21:47 | 45.63409 | 8.72680 | 736 ft | 17 kts | 272° |
| 2026-05-05 21:47 | 45.63392 | 8.72516 | 737 ft | 16 kts | 257° |
| 2026-05-05 21:47 | 45.63368 | 8.72357 | 737 ft | 17 kts | 259° |
| 2026-05-05 21:48 | 45.63345 | 8.72182 | 737 ft | 19 kts | 259° |
| 2026-05-05 21:48 | 45.63320 | 8.71996 | 737 ft | 19 kts | 259° |
| 2026-05-05 21:48 | 45.63313 | 8.71945 | 737 ft | 0 kts | 259° |
| 2026-05-05 21:48 | 45.63313 | 8.71944 | 737 ft | 0 kts | 259° |
| 2026-05-05 21:49 | 45.63307 | 8.71893 | 736 ft | 13 kts | 259° |
| 2026-05-05 21:49 | 45.63289 | 8.71759 | 736 ft | 14 kts | 259° |
| 2026-05-05 21:49 | 45.63270 | 8.71620 | 735 ft | 14 kts | 259° |
| 2026-05-05 21:50 | 45.63257 | 8.71524 | 735 ft | 7 kts | 258° |
| 2026-05-05 21:50 | 45.63232 | 8.71483 | 735 ft | 4 kts | 197° |
| 2026-05-05 21:50 | 45.63206 | 8.71473 | 736 ft | 4 kts | 198° |
| 2026-05-05 21:50 | 45.63185 | 8.71462 | 736 ft | 3 kts | 200° |
| 2026-05-05 21:51 | 45.63169 | 8.71454 | 735 ft | 2 kts | 199° |
| 2026-05-05 21:51 | 45.63165 | 8.71452 | 735 ft | 0 kts | 199° |